Salt Lake City, Utah
Traffic Map
Current Weather Conditions
Salt Lake City, Utah
Broken Clouds
Broken Clouds
18°
Feels Like: 18°
Wind Chill: 18° Ceiling: 23000
Heat Index: 18° Visibility: 10mi
Dew Point: Wind: 14mph
Humidity: 33% Direction: 160° (SSE)
Pressure: 30.15in Gusts: 0mph
Raw Report DataKSLC 041454Z 16012KT 10SM FEW004 FEW170 BKN230 18/01 A3015 RMK AO2 SLP173 FU FEW004 FU NW AND DSNT NW ACSL DSNT SE T01780011 50005
Traffic Incident Summary
Active as of:
Severity:
Category:
InformationThere was an issue retrieving the traffic information for this location. Please try a different location or try again shortly.
Advertisements
Track Severe Weather on mobile